sensor_id;sensor_type;location;lat;lon;timestamp;pressure;altitude;pressure_sealevel;temperature;humidity
36798;BME280;22748;8.426;99.512;2023-03-29T00:00:07;100819.59;;;30.57;56.31
36798;BME280;22748;8.426;99.512;2023-03-29T00:02:42;100830.19;;;30.59;56.55
36798;BME280;22748;8.426;99.512;2023-03-29T00:05:17;100833.50;;;30.61;56.70
36798;BME280;22748;8.426;99.512;2023-03-29T00:07:50;100829.16;;;30.60;56.69
36798;BME280;22748;8.426;99.512;2023-03-29T00:10:22;100834.16;;;30.49;56.55
36798;BME280;22748;8.426;99.512;2023-03-29T00:12:54;100840.22;;;30.45;56.73
36798;BME280;22748;8.426;99.512;2023-03-29T00:15:24;100847.03;;;30.47;57.12
36798;BME280;22748;8.426;99.512;2023-03-29T00:17:54;100845.38;;;30.46;56.83
36798;BME280;22748;8.426;99.512;2023-03-29T00:20:26;100835.88;;;30.37;57.23
36798;BME280;22748;8.426;99.512;2023-03-29T00:22:58;100843.97;;;30.37;56.98
36798;BME280;22748;8.426;99.512;2023-03-29T00:25:28;100836.94;;;30.36;57.40
36798;BME280;22748;8.426;99.512;2023-03-29T00:28:01;100839.63;;;30.36;57.75
36798;BME280;22748;8.426;99.512;2023-03-29T00:30:31;100843.75;;;30.39;57.35
36798;BME280;22748;8.426;99.512;2023-03-29T00:33:04;100846.25;;;30.40;57.17
36798;BME280;22748;8.426;99.512;2023-03-29T00:35:38;100857.84;;;30.41;57.58
36798;BME280;22748;8.426;99.512;2023-03-29T00:38:09;100862.41;;;30.40;57.79
36798;BME280;22748;8.426;99.512;2023-03-29T00:40:41;100867.56;;;30.42;57.84
36798;BME280;22748;8.426;99.512;2023-03-29T00:43:13;100863.63;;;30.44;57.82
36798;BME280;22748;8.426;99.512;2023-03-29T00:45:44;100871.91;;;30.49;58.07
36798;BME280;22748;8.426;99.512;2023-03-29T00:48:17;100882.25;;;30.52;57.68
36798;BME280;22748;8.426;99.512;2023-03-29T00:50:54;100879.78;;;30.51;57.90
36798;BME280;22748;8.426;99.512;2023-03-29T00:53:28;100882.84;;;30.54;57.93
36798;BME280;22748;8.426;99.512;2023-03-29T00:56:02;100883.06;;;30.60;58.16
36798;BME280;22748;8.426;99.512;2023-03-29T00:58:36;100884.69;;;30.61;58.11
36798;BME280;22748;8.426;99.512;2023-03-29T01:01:09;100889.66;;;30.64;57.95
36798;BME280;22748;8.426;99.512;2023-03-29T01:03:46;100895.03;;;30.64;58.14
36798;BME280;22748;8.426;99.512;2023-03-29T01:06:23;100888.19;;;30.68;58.33
36798;BME280;22748;8.426;99.512;2023-03-29T01:08:58;100895.41;;;30.74;58.39
36798;BME280;22748;8.426;99.512;2023-03-29T01:11:34;100903.28;;;30.75;58.15
36798;BME280;22748;8.426;99.512;2023-03-29T01:14:09;100905.34;;;30.80;58.21
36798;BME280;22748;8.426;99.512;2023-03-29T01:16:41;100909.91;;;30.86;57.86
36798;BME280;22748;8.426;99.512;2023-03-29T01:19:17;100915.31;;;30.86;58.26
36798;BME280;22748;8.426;99.512;2023-03-29T01:21:54;100914.44;;;30.92;58.20
36798;BME280;22748;8.426;99.512;2023-03-29T01:24:38;100913.78;;;30.97;58.31
36798;BME280;22748;8.426;99.512;2023-03-29T01:27:16;100921.84;;;31.04;58.45
36798;BME280;22748;8.426;99.512;2023-03-29T01:29:53;100928.06;;;31.04;58.39
36798;BME280;22748;8.426;99.512;2023-03-29T01:32:32;100933.41;;;31.11;57.93
36798;BME280;22748;8.426;99.512;2023-03-29T01:35:06;100938.34;;;31.14;57.75
36798;BME280;22748;8.426;99.512;2023-03-29T01:37:40;100937.13;;;31.16;57.61
36798;BME280;22748;8.426;99.512;2023-03-29T01:40:13;100931.28;;;31.20;57.53
36798;BME280;22748;8.426;99.512;2023-03-29T01:42:48;100925.88;;;31.20;57.73
36798;BME280;22748;8.426;99.512;2023-03-29T01:45:25;100932.91;;;31.27;57.42
36798;BME280;22748;8.426;99.512;2023-03-29T01:48:04;100931.41;;;31.31;57.32
36798;BME280;22748;8.426;99.512;2023-03-29T01:50:43;100939.50;;;31.31;57.51
36798;BME280;22748;8.426;99.512;2023-03-29T01:53:16;100945.69;;;31.39;57.04
36798;BME280;22748;8.426;99.512;2023-03-29T01:55:52;100944.41;;;31.41;56.71
36798;BME280;22748;8.426;99.512;2023-03-29T01:58:27;100945.25;;;31.42;56.89
36798;BME280;22748;8.426;99.512;2023-03-29T02:01:03;100942.16;;;31.45;56.45
36798;BME280;22748;8.426;99.512;2023-03-29T02:03:39;100951.91;;;31.46;56.35
36798;BME280;22748;8.426;99.512;2023-03-29T02:06:13;100953.56;;;31.47;55.66
36798;BME280;22748;8.426;99.512;2023-03-29T02:09:01;100953.56;;;31.47;55.57
36798;BME280;22748;8.426;99.512;2023-03-29T02:11:31;100959.13;;;31.52;55.30
36798;BME280;22748;8.426;99.512;2023-03-29T02:14:03;100961.66;;;31.47;55.37
36798;BME280;22748;8.426;99.512;2023-03-29T02:16:37;100956.41;;;31.52;55.26
36798;BME280;22748;8.426;99.512;2023-03-29T02:19:09;100952.84;;;31.58;55.42
36798;BME280;22748;8.426;99.512;2023-03-29T02:21:44;100950.91;;;31.65;54.57
36798;BME280;22748;8.426;99.512;2023-03-29T02:24:19;100953.34;;;31.73;54.02
36798;BME280;22748;8.426;99.512;2023-03-29T02:26:51;100961.38;;;31.80;53.89
36798;BME280;22748;8.426;99.512;2023-03-29T02:29:21;100959.97;;;31.77;54.16
36798;BME280;22748;8.426;99.512;2023-03-29T02:31:57;100957.88;;;31.80;53.82
36798;BME280;22748;8.426;99.512;2023-03-29T02:34:35;100951.56;;;31.86;53.66
36798;BME280;22748;8.426;99.512;2023-03-29T02:37:16;100955.47;;;31.90;52.76
36798;BME280;22748;8.426;99.512;2023-03-29T02:39:49;100954.44;;;31.91;53.17
36798;BME280;22748;8.426;99.512;2023-03-29T02:42:24;100968.09;;;31.96;53.13
36798;BME280;22748;8.426;99.512;2023-03-29T02:44:57;100962.69;;;31.96;53.20
36798;BME280;22748;8.426;99.512;2023-03-29T02:47:42;100958.97;;;31.97;52.95
36798;BME280;22748;8.426;99.512;2023-03-29T02:50:14;100959.75;;;32.04;53.05
36798;BME280;22748;8.426;99.512;2023-03-29T02:52:44;100963.88;;;32.07;53.09
36798;BME280;22748;8.426;99.512;2023-03-29T02:55:22;100966.50;;;32.13;52.82
36798;BME280;22748;8.426;99.512;2023-03-29T02:57:58;100960.81;;;32.22;52.68
36798;BME280;22748;8.426;99.512;2023-03-29T03:00:35;100958.72;;;32.24;52.41
36798;BME280;22748;8.426;99.512;2023-03-29T03:03:10;100955.13;;;32.30;52.55
36798;BME280;22748;8.426;99.512;2023-03-29T03:05:41;100945.88;;;32.37;52.71
36798;BME280;22748;8.426;99.512;2023-03-29T03:08:12;100947.75;;;32.37;52.72
36798;BME280;22748;8.426;99.512;2023-03-29T03:10:44;100934.97;;;32.44;52.85
36798;BME280;22748;8.426;99.512;2023-03-29T03:13:15;100932.28;;;32.44;52.54
36798;BME280;22748;8.426;99.512;2023-03-29T03:15:46;100935.59;;;32.46;52.38
36798;BME280;22748;8.426;99.512;2023-03-29T03:18:19;100928.06;;;32.48;51.92
36798;BME280;22748;8.426;99.512;2023-03-29T03:21:05;100928.84;;;32.55;52.18
36798;BME280;22748;8.426;99.512;2023-03-29T03:23:36;100919.00;;;32.61;51.88
36798;BME280;22748;8.426;99.512;2023-03-29T03:26:07;100918.31;;;32.66;51.43
36798;BME280;22748;8.426;99.512;2023-03-29T03:28:39;100904.81;;;32.66;51.79
36798;BME280;22748;8.426;99.512;2023-03-29T03:31:11;100907.06;;;32.69;51.17
36798;BME280;22748;8.426;99.512;2023-03-29T03:33:45;100903.91;;;32.72;51.26
36798;BME280;22748;8.426;99.512;2023-03-29T03:36:17;100893.00;;;32.78;51.53
36798;BME280;22748;8.426;99.512;2023-03-29T03:38:53;100885.34;;;32.75;51.61
36798;BME280;22748;8.426;99.512;2023-03-29T03:41:25;100891.94;;;32.79;50.95
36798;BME280;22748;8.426;99.512;2023-03-29T03:43:59;100888.06;;;32.87;50.66
36798;BME280;22748;8.426;99.512;2023-03-29T03:46:30;100888.94;;;32.99;49.97
36798;BME280;22748;8.426;99.512;2023-03-29T03:49:02;100883.16;;;32.96;50.42
36798;BME280;22748;8.426;99.512;2023-03-29T03:51:34;100885.78;;;33.03;50.19
36798;BME280;22748;8.426;99.512;2023-03-29T03:54:05;100893.16;;;32.95;49.68
36798;BME280;22748;8.426;99.512;2023-03-29T03:56:35;100883.53;;;32.99;50.36
36798;BME280;22748;8.426;99.512;2023-03-29T03:59:06;100873.66;;;33.05;49.56
36798;BME280;22748;8.426;99.512;2023-03-29T04:01:37;100872.41;;;33.08;49.04
36798;BME280;22748;8.426;99.512;2023-03-29T04:04:12;100872.06;;;33.16;48.40
36798;BME280;22748;8.426;99.512;2023-03-29T04:06:43;100861.03;;;33.17;47.61
36798;BME280;22748;8.426;99.512;2023-03-29T04:09:15;100860.91;;;33.24;47.28
36798;BME280;22748;8.426;99.512;2023-03-29T04:11:44;100861.72;;;33.25;47.71
36798;BME280;22748;8.426;99.512;2023-03-29T04:14:18;100853.50;;;33.31;47.39
36798;BME280;22748;8.426;99.512;2023-03-29T04:16:51;100844.44;;;33.37;47.34
36798;BME280;22748;8.426;99.512;2023-03-29T04:19:24;100844.06;;;33.34;46.58
36798;BME280;22748;8.426;99.512;2023-03-29T04:21:55;100827.75;;;33.40;46.33
36798;BME280;22748;8.426;99.512;2023-03-29T04:24:25;100826.78;;;33.47;46.49
36798;BME280;22748;8.426;99.512;2023-03-29T04:26:56;100826.66;;;33.53;46.70
36798;BME280;22748;8.426;99.512;2023-03-29T04:29:28;100819.84;;;33.51;46.07
36798;BME280;22748;8.426;99.512;2023-03-29T04:31:59;100819.38;;;33.54;46.29
36798;BME280;22748;8.426;99.512;2023-03-29T04:34:31;100817.84;;;33.58;46.42
36798;BME280;22748;8.426;99.512;2023-03-29T04:37:02;100814.22;;;33.64;46.06
36798;BME280;22748;8.426;99.512;2023-03-29T04:39:36;100805.03;;;33.65;46.33
36798;BME280;22748;8.426;99.512;2023-03-29T04:42:07;100801.25;;;33.66;46.11
36798;BME280;22748;8.426;99.512;2023-03-29T04:44:38;100799.03;;;33.63;46.02
36798;BME280;22748;8.426;99.512;2023-03-29T04:47:11;100786.78;;;33.60;46.21
36798;BME280;22748;8.426;99.512;2023-03-29T04:49:44;100777.22;;;33.58;46.57
36798;BME280;22748;8.426;99.512;2023-03-29T04:52:15;100773.25;;;33.60;46.28
36798;BME280;22748;8.426;99.512;2023-03-29T04:54:45;100784.31;;;33.59;46.09
36798;BME280;22748;8.426;99.512;2023-03-29T04:57:16;100775.69;;;33.62;46.36
36798;BME280;22748;8.426;99.512;2023-03-29T04:59:49;100774.16;;;33.66;46.01
36798;BME280;22748;8.426;99.512;2023-03-29T05:02:19;100763.34;;;33.66;45.96
36798;BME280;22748;8.426;99.512;2023-03-29T05:04:52;100755.91;;;33.73;46.31
36798;BME280;22748;8.426;99.512;2023-03-29T05:07:23;100752.22;;;33.79;46.40
36798;BME280;22748;8.426;99.512;2023-03-29T05:09:54;100741.03;;;33.88;46.32
36798;BME280;22748;8.426;99.512;2023-03-29T05:12:25;100746.44;;;33.88;46.19
36798;BME280;22748;8.426;99.512;2023-03-29T05:15:01;100743.34;;;33.96;45.70
36798;BME280;22748;8.426;99.512;2023-03-29T05:17:36;100734.00;;;34.04;45.09
36798;BME280;22748;8.426;99.512;2023-03-29T05:20:10;100732.22;;;34.09;45.04
36798;BME280;22748;8.426;99.512;2023-03-29T05:22:42;100723.75;;;34.17;44.59
36798;BME280;22748;8.426;99.512;2023-03-29T05:25:14;100717.81;;;34.20;44.62
36798;BME280;22748;8.426;99.512;2023-03-29T05:27:45;100716.19;;;34.19;43.76
36798;BME280;22748;8.426;99.512;2023-03-29T05:30:16;100705.44;;;34.25;43.90
36798;BME280;22748;8.426;99.512;2023-03-29T05:32:46;100697.88;;;34.27;43.79
36798;BME280;22748;8.426;99.512;2023-03-29T05:35:18;100693.63;;;34.31;44.23
36798;BME280;22748;8.426;99.512;2023-03-29T05:37:53;100681.69;;;34.32;44.17
36798;BME280;22748;8.426;99.512;2023-03-29T05:40:26;100684.69;;;34.30;44.00
36798;BME280;22748;8.426;99.512;2023-03-29T05:43:02;100674.47;;;34.37;44.07
36798;BME280;22748;8.426;99.512;2023-03-29T05:45:32;100661.16;;;34.36;44.61
36798;BME280;22748;8.426;99.512;2023-03-29T05:48:02;100660.19;;;34.42;44.12
36798;BME280;22748;8.426;99.512;2023-03-29T05:50:33;100655.91;;;34.46;44.21
36798;BME280;22748;8.426;99.512;2023-03-29T05:53:07;100646.16;;;34.45;43.35
36798;BME280;22748;8.426;99.512;2023-03-29T05:55:39;100650.00;;;34.49;42.97
36798;BME280;22748;8.426;99.512;2023-03-29T05:58:10;100643.09;;;34.58;43.17
36798;BME280;22748;8.426;99.512;2023-03-29T06:00:42;100637.16;;;34.61;42.77
36798;BME280;22748;8.426;99.512;2023-03-29T06:03:15;100633.16;;;34.64;42.39
36798;BME280;22748;8.426;99.512;2023-03-29T06:05:54;100636.22;;;34.68;42.49
36798;BME280;22748;8.426;99.512;2023-03-29T06:08:25;100630.03;;;34.72;42.56
36798;BME280;22748;8.426;99.512;2023-03-29T06:11:00;100628.72;;;34.75;42.59
36798;BME280;22748;8.426;99.512;2023-03-29T06:13:32;100621.72;;;34.79;42.69
36798;BME280;22748;8.426;99.512;2023-03-29T06:16:03;100613.34;;;34.80;41.78
36798;BME280;22748;8.426;99.512;2023-03-29T06:18:35;100601.69;;;34.80;42.29
36798;BME280;22748;8.426;99.512;2023-03-29T06:21:09;100604.63;;;34.78;42.26
36798;BME280;22748;8.426;99.512;2023-03-29T06:23:40;100591.88;;;34.79;41.91
36798;BME280;22748;8.426;99.512;2023-03-29T06:26:11;100585.31;;;34.75;42.64
36798;BME280;22748;8.426;99.512;2023-03-29T06:28:46;100576.75;;;34.83;42.76
36798;BME280;22748;8.426;99.512;2023-03-29T06:31:19;100573.84;;;34.90;42.17
36798;BME280;22748;8.426;99.512;2023-03-29T06:33:49;100575.84;;;34.77;41.90
36798;BME280;22748;8.426;99.512;2023-03-29T06:36:21;100565.84;;;34.78;42.36
36798;BME280;22748;8.426;99.512;2023-03-29T06:38:52;100570.19;;;34.79;42.31
36798;BME280;22748;8.426;99.512;2023-03-29T06:41:24;100558.91;;;34.87;42.28
36798;BME280;22748;8.426;99.512;2023-03-29T06:43:55;100551.94;;;34.96;41.84
36798;BME280;22748;8.426;99.512;2023-03-29T06:46:28;100552.13;;;34.90;41.89
36798;BME280;22748;8.426;99.512;2023-03-29T06:48:59;100544.38;;;34.76;42.19
36798;BME280;22748;8.426;99.512;2023-03-29T06:51:31;100540.34;;;34.79;42.16
36798;BME280;22748;8.426;99.512;2023-03-29T06:54:02;100536.47;;;34.75;42.42
36798;BME280;22748;8.426;99.512;2023-03-29T06:56:33;100535.81;;;34.85;42.58
36798;BME280;22748;8.426;99.512;2023-03-29T06:59:05;100524.50;;;34.93;41.70
36798;BME280;22748;8.426;99.512;2023-03-29T07:01:38;100529.25;;;35.02;41.32
36798;BME280;22748;8.426;99.512;2023-03-29T07:04:09;100513.56;;;35.10;41.32
36798;BME280;22748;8.426;99.512;2023-03-29T07:06:42;100516.69;;;35.18;41.27
36798;BME280;22748;8.426;99.512;2023-03-29T07:09:15;100506.44;;;35.26;41.07
36798;BME280;22748;8.426;99.512;2023-03-29T07:11:46;100497.53;;;35.30;41.04
36798;BME280;22748;8.426;99.512;2023-03-29T07:14:18;100501.22;;;35.19;41.35
36798;BME280;22748;8.426;99.512;2023-03-29T07:16:49;100496.41;;;35.26;41.18
36798;BME280;22748;8.426;99.512;2023-03-29T07:19:19;100495.31;;;35.27;41.01
36798;BME280;22748;8.426;99.512;2023-03-29T07:21:53;100496.28;;;35.16;41.35
36798;BME280;22748;8.426;99.512;2023-03-29T07:24:24;100494.16;;;35.18;41.59
36798;BME280;22748;8.426;99.512;2023-03-29T07:26:54;100490.31;;;35.14;41.83
36798;BME280;22748;8.426;99.512;2023-03-29T07:29:25;100488.72;;;35.18;41.97
36798;BME280;22748;8.426;99.512;2023-03-29T07:31:56;100486.81;;;35.18;42.00
36798;BME280;22748;8.426;99.512;2023-03-29T07:34:27;100476.47;;;35.15;41.47
36798;BME280;22748;8.426;99.512;2023-03-29T07:37:00;100472.44;;;35.18;41.53
36798;BME280;22748;8.426;99.512;2023-03-29T07:39:33;100465.47;;;35.27;41.25
36798;BME280;22748;8.426;99.512;2023-03-29T07:42:04;100461.72;;;35.33;41.11
36798;BME280;22748;8.426;99.512;2023-03-29T07:44:35;100456.41;;;35.43;40.81
36798;BME280;22748;8.426;99.512;2023-03-29T07:47:06;100447.22;;;35.50;40.91
36798;BME280;22748;8.426;99.512;2023-03-29T07:49:37;100445.03;;;35.52;40.73
36798;BME280;22748;8.426;99.512;2023-03-29T07:52:10;100436.94;;;35.57;41.24
36798;BME280;22748;8.426;99.512;2023-03-29T07:54:41;100438.06;;;35.61;40.60
36798;BME280;22748;8.426;99.512;2023-03-29T07:57:10;100432.06;;;35.59;40.70
36798;BME280;22748;8.426;99.512;2023-03-29T07:59:41;100424.81;;;35.64;40.08
36798;BME280;22748;8.426;99.512;2023-03-29T08:02:11;100422.69;;;35.72;40.58
36798;BME280;22748;8.426;99.512;2023-03-29T08:04:41;100416.97;;;35.73;40.52
36798;BME280;22748;8.426;99.512;2023-03-29T08:07:15;100412.09;;;35.70;40.08
36798;BME280;22748;8.426;99.512;2023-03-29T08:09:47;100415.91;;;35.74;40.07
36798;BME280;22748;8.426;99.512;2023-03-29T08:12:18;100412.41;;;35.79;39.90
36798;BME280;22748;8.426;99.512;2023-03-29T08:14:47;100405.88;;;35.75;40.42
36798;BME280;22748;8.426;99.512;2023-03-29T08:17:17;100407.09;;;35.62;40.95
36798;BME280;22748;8.426;99.512;2023-03-29T08:19:47;100401.19;;;35.65;41.34
36798;BME280;22748;8.426;99.512;2023-03-29T08:22:20;100403.34;;;35.63;41.97
36798;BME280;22748;8.426;99.512;2023-03-29T08:24:51;100396.09;;;35.41;42.51
36798;BME280;22748;8.426;99.512;2023-03-29T08:27:21;100390.69;;;35.47;42.36
36798;BME280;22748;8.426;99.512;2023-03-29T08:29:53;100384.94;;;35.43;42.75
36798;BME280;22748;8.426;99.512;2023-03-29T08:32:24;100380.59;;;35.42;43.06
36798;BME280;22748;8.426;99.512;2023-03-29T08:34:54;100385.25;;;35.47;43.24
36798;BME280;22748;8.426;99.512;2023-03-29T08:37:32;100384.69;;;35.44;43.50
36798;BME280;22748;8.426;99.512;2023-03-29T08:40:03;100382.03;;;35.50;43.47
36798;BME280;22748;8.426;99.512;2023-03-29T08:43:03;100370.09;;;35.56;43.19
36798;BME280;22748;8.426;99.512;2023-03-29T08:45:40;100365.53;;;35.56;43.50
36798;BME280;22748;8.426;99.512;2023-03-29T08:48:19;100377.19;;;35.57;43.65
36798;BME280;22748;8.426;99.512;2023-03-29T08:51:12;100367.94;;;35.58;43.44
36798;BME280;22748;8.426;99.512;2023-03-29T08:53:52;100370.41;;;35.59;43.58
36798;BME280;22748;8.426;99.512;2023-03-29T08:56:26;100365.78;;;35.60;43.90
36798;BME280;22748;8.426;99.512;2023-03-29T08:59:01;100369.66;;;35.64;43.26
36798;BME280;22748;8.426;99.512;2023-03-29T09:01:34;100355.56;;;35.67;43.42
36798;BME280;22748;8.426;99.512;2023-03-29T09:04:10;100357.50;;;35.72;43.40
36798;BME280;22748;8.426;99.512;2023-03-29T09:06:43;100357.22;;;35.73;43.23
36798;BME280;22748;8.426;99.512;2023-03-29T09:09:21;100351.00;;;35.78;42.45
36798;BME280;22748;8.426;99.512;2023-03-29T09:12:05;100351.53;;;35.80;42.62
36798;BME280;22748;8.426;99.512;2023-03-29T09:17:55;100340.97;;;35.83;42.62
36798;BME280;22748;8.426;99.512;2023-03-29T09:20:37;100339.34;;;35.82;42.69
36798;BME280;22748;8.426;99.512;2023-03-29T09:26:13;100328.44;;;35.77;43.00
36798;BME280;22748;8.426;99.512;2023-03-29T09:28:53;100329.50;;;35.71;42.78
36798;BME280;22748;8.426;99.512;2023-03-29T09:31:28;100325.13;;;35.65;43.02
36798;BME280;22748;8.426;99.512;2023-03-29T09:34:04;100326.75;;;35.66;42.91
36798;BME280;22748;8.426;99.512;2023-03-29T09:36:48;100317.72;;;35.60;43.08
36798;BME280;22748;8.426;99.512;2023-03-29T09:39:20;100321.84;;;35.63;43.13
36798;BME280;22748;8.426;99.512;2023-03-29T09:41:58;100317.53;;;35.67;43.17
36798;BME280;22748;8.426;99.512;2023-03-29T09:44:34;100315.09;;;35.71;42.83
36798;BME280;22748;8.426;99.512;2023-03-29T09:47:08;100318.63;;;35.71;43.04
36798;BME280;22748;8.426;99.512;2023-03-29T09:49:45;100309.97;;;35.79;42.87
36798;BME280;22748;8.426;99.512;2023-03-29T09:52:20;100320.34;;;35.82;43.06
36798;BME280;22748;8.426;99.512;2023-03-29T09:54:51;100330.91;;;35.79;43.54
36798;BME280;22748;8.426;99.512;2023-03-29T09:57:26;100344.25;;;35.80;43.45
36798;BME280;22748;8.426;99.512;2023-03-29T10:00:00;100345.31;;;35.79;43.24
36798;BME280;22748;8.426;99.512;2023-03-29T10:02:34;100345.78;;;35.71;43.37
36798;BME280;22748;8.426;99.512;2023-03-29T10:05:07;100344.16;;;35.65;43.57
36798;BME280;22748;8.426;99.512;2023-03-29T10:07:40;100350.84;;;35.57;43.68
36798;BME280;22748;8.426;99.512;2023-03-29T10:10:20;100369.31;;;35.60;43.58
36798;BME280;22748;8.426;99.512;2023-03-29T10:12:58;100372.03;;;35.60;43.90
36798;BME280;22748;8.426;99.512;2023-03-29T10:15:30;100381.53;;;35.58;44.09
36798;BME280;22748;8.426;99.512;2023-03-29T10:18:04;100380.72;;;35.57;44.12
36798;BME280;22748;8.426;99.512;2023-03-29T10:20:39;100379.34;;;35.55;44.24
36798;BME280;22748;8.426;99.512;2023-03-29T10:23:18;100387.75;;;35.53;44.56
36798;BME280;22748;8.426;99.512;2023-03-29T10:25:51;100394.00;;;35.54;44.69
36798;BME280;22748;8.426;99.512;2023-03-29T10:28:26;100396.16;;;35.52;43.88
36798;BME280;22748;8.426;99.512;2023-03-29T10:30:58;100398.28;;;35.44;43.84
36798;BME280;22748;8.426;99.512;2023-03-29T10:33:33;100404.19;;;35.36;43.54
36798;BME280;22748;8.426;99.512;2023-03-29T10:36:08;100403.63;;;35.34;43.42
36798;BME280;22748;8.426;99.512;2023-03-29T10:38:40;100412.75;;;35.23;43.76
36798;BME280;22748;8.426;99.512;2023-03-29T10:41:12;100419.78;;;35.19;43.84
36798;BME280;22748;8.426;99.512;2023-03-29T10:43:47;100419.47;;;35.15;44.15
36798;BME280;22748;8.426;99.512;2023-03-29T10:46:21;100415.19;;;35.19;43.84
36798;BME280;22748;8.426;99.512;2023-03-29T10:48:56;100413.50;;;35.13;44.26
36798;BME280;22748;8.426;99.512;2023-03-29T10:51:29;100411.53;;;35.09;44.31
36798;BME280;22748;8.426;99.512;2023-03-29T10:54:02;100414.88;;;35.16;44.19
36798;BME280;22748;8.426;99.512;2023-03-29T10:56:36;100413.03;;;35.21;44.29
36798;BME280;22748;8.426;99.512;2023-03-29T10:59:34;100414.41;;;35.24;44.46
36798;BME280;22748;8.426;99.512;2023-03-29T11:02:38;100423.34;;;35.25;44.24
36798;BME280;22748;8.426;99.512;2023-03-29T11:05:22;100423.03;;;35.21;44.22
36798;BME280;22748;8.426;99.512;2023-03-29T11:11:10;100428.09;;;35.12;44.22
36798;BME280;22748;8.426;99.512;2023-03-29T11:13:48;100433.78;;;35.11;44.36
36798;BME280;22748;8.426;99.512;2023-03-29T11:16:29;100445.16;;;35.08;43.52
36798;BME280;22748;8.426;99.512;2023-03-29T11:19:20;100438.28;;;35.00;43.09
36798;BME280;22748;8.426;99.512;2023-03-29T11:22:02;100449.66;;;34.97;43.43
36798;BME280;22748;8.426;99.512;2023-03-29T11:27:39;100458.56;;;34.92;43.38
36798;BME280;22748;8.426;99.512;2023-03-29T11:30:21;100463.97;;;34.92;43.36
36798;BME280;22748;8.426;99.512;2023-03-29T11:33:04;100476.16;;;34.90;43.64
36798;BME280;22748;8.426;99.512;2023-03-29T11:35:45;100485.69;;;34.92;43.49
36798;BME280;22748;8.426;99.512;2023-03-29T11:38:24;100492.19;;;34.91;43.49
36798;BME280;22748;8.426;99.512;2023-03-29T11:41:00;100493.00;;;34.92;42.88
36798;BME280;22748;8.426;99.512;2023-03-29T11:43:36;100497.63;;;34.91;43.51
36798;BME280;22748;8.426;99.512;2023-03-29T11:46:12;100497.88;;;34.90;43.38
36798;BME280;22748;8.426;99.512;2023-03-29T11:48:51;100509.81;;;34.89;43.13
36798;BME280;22748;8.426;99.512;2023-03-29T11:51:33;100513.00;;;34.86;43.26
36798;BME280;22748;8.426;99.512;2023-03-29T11:54:12;100516.50;;;34.81;43.36
36798;BME280;22748;8.426;99.512;2023-03-29T11:56:50;100520.78;;;34.77;43.70
36798;BME280;22748;8.426;99.512;2023-03-29T11:59:29;100521.59;;;34.77;43.82
36798;BME280;22748;8.426;99.512;2023-03-29T12:02:09;100520.78;;;34.77;44.09
36798;BME280;22748;8.426;99.512;2023-03-29T12:04:51;100520.22;;;34.75;44.16
36798;BME280;22748;8.426;99.512;2023-03-29T12:07:27;100527.78;;;34.73;44.54
36798;BME280;22748;8.426;99.512;2023-03-29T12:10:02;100532.63;;;34.71;44.73
36798;BME280;22748;8.426;99.512;2023-03-29T12:12:42;100532.63;;;34.71;44.98
36798;BME280;22748;8.426;99.512;2023-03-29T12:15:21;100536.44;;;34.70;45.13
36798;BME280;22748;8.426;99.512;2023-03-29T12:18:01;100536.91;;;34.67;45.32
36798;BME280;22748;8.426;99.512;2023-03-29T12:20:42;100541.66;;;34.59;45.77
36798;BME280;22748;8.426;99.512;2023-03-29T12:23:17;100541.63;;;34.54;45.91
36798;BME280;22748;8.426;99.512;2023-03-29T12:25:58;100551.88;;;34.52;45.85
36798;BME280;22748;8.426;99.512;2023-03-29T12:28:53;100553.69;;;34.47;46.28
36798;BME280;22748;8.426;99.512;2023-03-29T12:31:44;100566.38;;;34.41;46.26
36798;BME280;22748;8.426;99.512;2023-03-29T12:34:35;100563.56;;;34.36;46.72
36798;BME280;22748;8.426;99.512;2023-03-29T12:37:31;100569.25;;;34.34;46.78
36798;BME280;22748;8.426;99.512;2023-03-29T12:40:12;100585.25;;;34.36;46.85
36798;BME280;22748;8.426;99.512;2023-03-29T12:42:45;100573.66;;;34.40;47.16
36798;BME280;22748;8.426;99.512;2023-03-29T12:45:19;100574.56;;;34.46;47.21
36798;BME280;22748;8.426;99.512;2023-03-29T12:47:52;100575.72;;;34.50;47.21
36798;BME280;22748;8.426;99.512;2023-03-29T12:50:25;100577.91;;;34.53;47.28
36798;BME280;22748;8.426;99.512;2023-03-29T12:53:21;100577.91;;;34.53;47.17
36798;BME280;22748;8.426;99.512;2023-03-29T12:56:10;100581.47;;;34.54;47.25
36798;BME280;22748;8.426;99.512;2023-03-29T12:58:51;100588.19;;;34.51;47.20
36798;BME280;22748;8.426;99.512;2023-03-29T13:01:27;100591.66;;;34.47;47.41
36798;BME280;22748;8.426;99.512;2023-03-29T13:04:17;100601.09;;;34.44;47.63
36798;BME280;22748;8.426;99.512;2023-03-29T13:07:04;100603.59;;;34.46;47.61
36798;BME280;22748;8.426;99.512;2023-03-29T13:09:50;100607.09;;;34.46;47.61
36798;BME280;22748;8.426;99.512;2023-03-29T13:12:26;100606.28;;;34.46;47.71
36798;BME280;22748;8.426;99.512;2023-03-29T13:15:00;100618.47;;;34.43;47.82
36798;BME280;22748;8.426;99.512;2023-03-29T13:17:40;100614.91;;;34.42;47.89
36798;BME280;22748;8.426;99.512;2023-03-29T13:20:28;100623.31;;;34.41;47.89
36798;BME280;22748;8.426;99.512;2023-03-29T13:23:21;100617.88;;;34.41;48.08
36798;BME280;22748;8.426;99.512;2023-03-29T13:26:41;100625.44;;;34.39;47.98
36798;BME280;22748;8.426;99.512;2023-03-29T13:29:42;100635.22;;;34.40;48.12
36798;BME280;22748;8.426;99.512;2023-03-29T13:32:37;100635.13;;;34.35;48.18
36798;BME280;22748;8.426;99.512;2023-03-29T13:35:17;100637.28;;;34.33;48.41
36798;BME280;22748;8.426;99.512;2023-03-29T13:38:00;100645.16;;;34.34;48.56
36798;BME280;22748;8.426;99.512;2023-03-29T13:40:56;100650.31;;;34.36;48.31
36798;BME280;22748;8.426;99.512;2023-03-29T13:43:46;100634.56;;;34.33;48.39